createdAt,value
2023-02-17T00:00:02.754Z,5.8
2023-02-17T00:05:02.496Z,5.81
2023-02-17T00:10:02.471Z,5.8
2023-02-17T00:15:03.250Z,5.87
2023-02-17T00:20:03.075Z,5.9
2023-02-17T00:25:02.812Z,6.28
2023-02-17T00:30:02.709Z,6.27
2023-02-17T00:35:02.291Z,6.14
2023-02-17T00:40:03.026Z,6.15
2023-02-17T00:45:02.886Z,6.25
2023-02-17T00:50:02.572Z,6.29
2023-02-17T00:55:03.438Z,6.39
2023-02-17T01:00:02.396Z,6.31
2023-02-17T01:05:03.076Z,6.45
2023-02-17T01:10:02.907Z,6.47
2023-02-17T01:15:03.168Z,6.62
2023-02-17T01:20:02.927Z,6.48
2023-02-17T01:25:02.778Z,6.37
2023-02-17T01:30:02.649Z,6.47
2023-02-17T01:35:02.225Z,6.43
2023-02-17T01:40:02.179Z,6.43
2023-02-17T01:45:03.054Z,6.52
2023-02-17T01:50:02.911Z,6.53
2023-02-17T01:55:03.100Z,6.67
2023-02-17T02:00:02.525Z,6.59
2023-02-17T02:05:02.587Z,6.68
2023-02-17T02:10:02.335Z,6.63
2023-02-17T02:15:02.622Z,6.33
2023-02-17T02:20:02.335Z,6.31
2023-02-17T02:25:03.032Z,6.32
2023-02-17T02:30:03.036Z,6.36
2023-02-17T02:35:02.757Z,6.46
2023-02-17T02:40:02.525Z,6.36
2023-02-17T02:45:02.325Z,6.19
2023-02-17T02:50:03.002Z,6.1
2023-02-17T02:55:03.456Z,6.08
2023-02-17T03:00:02.475Z,6.14
2023-02-17T03:05:02.522Z,6.05
2023-02-17T03:10:03.266Z,6.1
2023-02-17T03:15:03.047Z,6.14
2023-02-17T03:20:02.855Z,6.15
2023-02-17T03:25:02.602Z,6.22
2023-02-17T03:30:02.387Z,6.2
2023-02-17T03:35:03.015Z,6.26
2023-02-17T03:40:02.868Z,6.27
2023-02-17T03:45:02.603Z,6.3
2023-02-17T03:50:02.378Z,6.23
2023-02-17T03:55:03.970Z,6.3
2023-02-17T04:00:02.395Z,6.3
2023-02-17T04:05:03.037Z,6.32
2023-02-17T04:10:05.239Z,6.37
2023-02-17T04:15:03.218Z,6.38
2023-02-17T04:20:03.207Z,6.33
2023-02-17T04:25:02.697Z,6.48
2023-02-17T04:30:02.656Z,6.41
2023-02-17T04:35:02.472Z,6.53
2023-02-17T04:40:02.276Z,6.5
2023-02-17T04:45:03.270Z,6.7
2023-02-17T04:50:02.952Z,6.58
2023-02-17T04:55:03.555Z,6.72
2023-02-17T05:00:02.532Z,6.7
2023-02-17T05:05:03.199Z,6.78
2023-02-17T05:10:02.873Z,6.79
2023-02-17T05:15:02.810Z,6.85
2023-02-17T05:20:02.688Z,6.94
2023-02-17T05:25:02.775Z,6.99
2023-02-17T05:30:02.868Z,7.02
2023-02-17T05:35:02.472Z,7.08
2023-02-17T05:40:02.446Z,7.1
2023-02-17T05:45:03.206Z,7.29
2023-02-17T05:50:02.867Z,7.34
2023-02-17T05:55:03.373Z,7.33
2023-02-17T06:00:02.429Z,7.42
2023-02-17T06:05:03.979Z,7.35
2023-02-17T06:10:02.887Z,7.36
2023-02-17T06:15:02.922Z,7.49
2023-02-17T06:20:02.608Z,7.51
2023-02-17T06:25:02.330Z,7.61
2023-02-17T06:30:02.418Z,7.6
2023-02-17T06:35:03.134Z,7.62
2023-02-17T06:40:03.135Z,7.64
2023-02-17T06:45:02.507Z,7.69
2023-02-17T06:50:02.189Z,7.76
2023-02-17T06:55:03.820Z,7.93
2023-02-17T07:00:02.301Z,7.81
2023-02-17T07:05:03.040Z,7.92
2023-02-17T07:10:03.139Z,8.05
2023-02-17T07:15:02.944Z,8.18
2023-02-17T07:20:02.796Z,8.23
2023-02-17T07:25:02.576Z,8.16
2023-02-17T07:30:02.478Z,8.23
2023-02-17T07:35:03.180Z,8.13
2023-02-17T07:40:02.810Z,8.32
2023-02-17T07:45:03.035Z,8.2
2023-02-17T07:50:02.974Z,8.43
2023-02-17T07:55:03.637Z,8.29
2023-02-17T08:00:02.860Z,8.39
2023-02-17T08:05:02.545Z,8.41
2023-02-17T08:10:02.441Z,8.5
2023-02-17T08:15:03.134Z,8.67
2023-02-17T08:20:08.511Z,8.7
2023-02-17T08:25:03.091Z,8.7
2023-02-17T08:30:03.085Z,8.85
2023-02-17T08:35:02.816Z,8.83
2023-02-17T08:40:02.588Z,8.91
2023-02-17T08:45:02.967Z,8.95
2023-02-17T08:50:02.659Z,8.87
2023-02-17T08:55:03.081Z,8.87
2023-02-17T09:00:03.688Z,8.89
2023-02-17T09:05:02.530Z,8.86
2023-02-17T09:10:02.990Z,8.79
2023-02-17T09:15:02.674Z,8.78
2023-02-17T09:20:02.647Z,8.72
2023-02-17T09:25:03.076Z,8.76
2023-02-17T09:30:03.024Z,8.72
2023-02-17T09:35:02.797Z,8.79
2023-02-17T09:40:02.448Z,8.8
2023-02-17T09:45:03.235Z,8.92
2023-02-17T09:50:03.029Z,9.07
2023-02-17T09:55:03.375Z,9.23
2023-02-17T10:00:02.288Z,9.35
2023-02-17T10:05:03.040Z,9.45
2023-02-17T10:10:02.757Z,9.55
2023-02-17T10:15:02.521Z,9.6
2023-02-17T10:20:02.312Z,9.74
2023-02-17T10:25:03.087Z,9.8
2023-02-17T10:30:02.926Z,9.95
2023-02-17T10:35:02.436Z,10.25
2023-02-17T10:40:02.268Z,10.37
2023-02-17T10:45:03.169Z,10.43
2023-02-17T10:50:02.721Z,10.48
2023-02-17T10:55:22.232Z,10.52
2023-02-17T11:00:02.330Z,10.7
2023-02-17T11:05:03.031Z,10.72
2023-02-17T11:10:02.233Z,10.91
2023-02-17T11:15:03.113Z,10.7
2023-02-17T11:20:02.835Z,10.73
2023-02-17T11:25:02.488Z,10.73
2023-02-17T11:30:02.334Z,10.75
2023-02-17T11:35:02.933Z,10.8
2023-02-17T11:40:02.663Z,10.88
2023-02-17T11:45:02.523Z,10.97
2023-02-17T11:50:03.170Z,11.06
2023-02-17T11:55:03.585Z,11.22
2023-02-17T12:00:02.841Z,11.56
2023-02-17T12:05:02.365Z,11.61
2023-02-17T12:10:02.424Z,11.47
2023-02-17T12:15:03.326Z,11.42
2023-02-17T12:20:02.931Z,11.42
2023-02-17T12:25:02.632Z,11.44
2023-02-17T12:30:02.391Z,11.44
2023-02-17T12:35:03.013Z,11.36
2023-02-17T12:40:02.753Z,11.42
2023-02-17T12:45:02.693Z,11.57
2023-02-17T12:50:03.150Z,11.61
2023-02-17T12:55:03.327Z,11.69
2023-02-17T13:00:02.630Z,11.75
2023-02-17T13:10:02.606Z,11.78
2023-02-17T13:15:02.284Z,12.02
2023-02-17T13:20:02.321Z,11.88
2023-02-17T13:25:03.051Z,11.89
2023-02-17T13:30:03.192Z,11.98
2023-02-17T13:35:02.614Z,12.07
2023-02-17T13:40:02.456Z,12.14
2023-02-17T13:45:03.372Z,12.16
2023-02-17T13:50:03.092Z,12.21
2023-02-17T13:55:03.633Z,12.19
2023-02-17T14:00:02.896Z,12.29
2023-02-17T14:05:03.045Z,12.37
2023-02-17T14:10:02.664Z,12.33
2023-02-17T14:15:02.416Z,12.52
2023-02-17T14:20:03.166Z,12.38
2023-02-17T14:25:02.808Z,12.35
2023-02-17T14:30:05.202Z,12.35
2023-02-17T14:35:02.899Z,12.4
2023-02-17T14:40:02.614Z,12.38
2023-02-17T14:45:02.279Z,12.72
2023-02-17T14:50:03.022Z,12.48
2023-02-17T14:55:03.495Z,12.45
2023-02-17T15:00:02.852Z,12.13
2023-02-17T15:05:02.564Z,12.23
2023-02-17T15:10:02.372Z,12.2
2023-02-17T15:15:03.155Z,12.29
2023-02-17T15:20:03.145Z,12.31
2023-02-17T15:25:02.813Z,12.16
2023-02-17T15:30:02.574Z,12.08
2023-02-17T15:35:02.697Z,12.12
2023-02-17T15:40:02.311Z,11.82
2023-02-17T15:45:03.118Z,11.62
2023-02-17T15:50:02.805Z,11.09
2023-02-17T15:55:03.548Z,10.69
2023-02-17T16:00:02.637Z,10.64
2023-02-17T16:05:02.365Z,10.48
2023-02-17T16:10:03.074Z,10.4
2023-02-17T16:15:02.971Z,10.47
2023-02-17T16:20:02.624Z,10.45
2023-02-17T16:25:02.407Z,10.45
2023-02-17T16:30:03.200Z,10.47
2023-02-17T16:35:02.817Z,10.52
2023-02-17T16:40:02.775Z,10.59
2023-02-17T16:45:02.506Z,10.77
2023-02-17T16:50:02.326Z,11.07
2023-02-17T16:55:03.762Z,11.08
2023-02-17T17:00:03.036Z,11
2023-02-17T17:05:02.722Z,10.83
2023-02-17T17:10:15.644Z,10.98
2023-02-17T17:15:03.025Z,10.97
2023-02-17T17:20:03.000Z,11.12
2023-02-17T17:25:02.808Z,11.22
2023-02-17T17:30:02.531Z,11.17
2023-02-17T17:35:02.403Z,10.98
2023-02-17T17:40:02.293Z,10.88
2023-02-17T17:45:03.109Z,10.72
2023-02-17T17:50:02.734Z,10.94
2023-02-17T17:55:03.639Z,11.22
2023-02-17T18:00:02.658Z,11.07
2023-02-17T18:05:03.121Z,10.93
2023-02-17T18:10:02.482Z,10.99
2023-02-17T18:15:02.448Z,11.02
2023-02-17T18:20:02.227Z,10.94
2023-02-17T18:25:03.082Z,11.07
2023-02-17T18:30:02.943Z,10.88
2023-02-17T18:35:02.790Z,10.97
2023-02-17T18:40:02.533Z,10.99
2023-02-17T18:45:02.374Z,11.03
2023-02-17T18:50:02.392Z,11.06
2023-02-17T18:55:03.515Z,11.1
2023-02-17T19:00:02.767Z,10.95
2023-02-17T19:05:02.392Z,10.88
2023-02-17T19:10:03.122Z,11.11
2023-02-17T19:15:02.921Z,11.16
2023-02-17T19:20:02.689Z,11.34
2023-02-17T19:25:02.500Z,11.25
2023-02-17T19:30:02.658Z,11.01
2023-02-17T19:35:02.996Z,11.28
2023-02-17T19:40:03.053Z,11.13
2023-02-17T19:45:02.231Z,10.43
2023-02-17T19:50:03.007Z,9.75
2023-02-17T19:55:03.357Z,9.29
2023-02-17T20:00:02.468Z,9.23
2023-02-17T20:05:03.113Z,9.06
2023-02-17T20:10:02.863Z,9.08
2023-02-17T20:15:02.787Z,9.14
2023-02-17T20:20:02.659Z,9.06
2023-02-17T20:25:02.972Z,8.9
2023-02-17T20:30:02.854Z,8.91
2023-02-17T20:35:02.915Z,8.85
2023-02-17T20:40:02.759Z,8.78
2023-02-17T20:45:02.805Z,8.69
2023-02-17T20:50:03.012Z,8.68
2023-02-17T20:55:03.745Z,8.76
2023-02-17T21:00:02.930Z,8.74
2023-02-17T21:05:02.568Z,8.61
2023-02-17T21:10:02.261Z,8.23
2023-02-17T21:15:02.986Z,8.08
2023-02-17T21:20:02.698Z,8.13
2023-02-17T21:25:02.418Z,8.3
2023-02-17T21:30:02.568Z,8.58
2023-02-17T21:35:03.151Z,8.41
2023-02-17T21:40:02.902Z,8.38
2023-02-17T21:45:02.772Z,7.67
2023-02-17T21:50:02.496Z,7.62
2023-02-17T21:55:03.043Z,7.37
2023-02-17T22:00:03.240Z,7.12
2023-02-17T22:05:02.871Z,7.08
2023-02-17T22:10:02.579Z,6.89
2023-02-17T22:15:02.375Z,7.66
2023-02-17T22:20:03.155Z,7.5
2023-02-17T22:25:02.949Z,7.22
2023-02-17T22:30:02.846Z,7.04
2023-02-17T22:35:02.640Z,7.1
2023-02-17T22:40:02.522Z,6.94
2023-02-17T22:45:02.644Z,6.56
2023-02-17T22:50:02.594Z,6.74
2023-02-17T22:55:03.808Z,6.29
2023-02-17T23:00:02.705Z,6.13
2023-02-17T23:05:02.690Z,7.1
2023-02-17T23:10:02.901Z,6.68
2023-02-17T23:15:02.794Z,6.6
2023-02-17T23:20:02.548Z,6.48
2023-02-17T23:25:02.222Z,6.4
2023-02-17T23:30:03.258Z,6.46
2023-02-17T23:35:02.871Z,6.45
2023-02-17T23:40:02.744Z,6.63
2023-02-17T23:45:02.606Z,6.29
2023-02-17T23:50:02.377Z,6.6
2023-02-17T23:55:04.129Z,6.44
